createdAt,value
2023-05-12T00:00:06.282Z,994.00
2023-05-12T00:01:06.323Z,996.00
2023-05-12T00:02:06.369Z,1003.00
2023-05-12T00:03:06.569Z,996.00
2023-05-12T00:04:06.723Z,997.00
2023-05-12T00:05:06.527Z,1002.00
2023-05-12T00:06:06.584Z,989.00
2023-05-12T00:07:06.617Z,997.00
2023-05-12T00:08:06.646Z,990.00
2023-05-12T00:09:06.707Z,1002.00
2023-05-12T00:10:06.744Z,1002.00
2023-05-12T00:11:06.757Z,995.00
2023-05-12T00:12:06.811Z,1005.00
2023-05-12T00:13:06.863Z,995.00
2023-05-12T00:14:06.892Z,982.00
2023-05-12T00:15:06.928Z,1004.00
2023-05-12T00:16:06.996Z,1008.00
2023-05-12T00:17:06.987Z,987.00
2023-05-12T00:18:07.086Z,1006.00
2023-05-12T00:19:07.126Z,987.00
2023-05-12T00:20:07.118Z,990.00
2023-05-12T00:21:07.176Z,994.00
2023-05-12T00:22:07.198Z,984.00
2023-05-12T00:23:07.215Z,1003.00
2023-05-12T00:24:07.280Z,998.00
2023-05-12T00:25:07.331Z,998.00
2023-05-12T00:26:07.334Z,991.00
2023-05-12T00:27:07.368Z,990.00
2023-05-12T00:28:07.397Z,990.00
2023-05-12T00:29:07.453Z,992.00
2023-05-12T00:30:07.507Z,990.00
2023-05-12T00:31:07.578Z,990.00
2023-05-12T00:32:07.562Z,1000.00
2023-05-12T00:33:07.630Z,996.00
2023-05-12T00:34:07.691Z,996.00
2023-05-12T00:35:07.707Z,986.00
2023-05-12T00:36:07.904Z,987.00
2023-05-12T00:37:07.743Z,985.00
2023-05-12T00:38:07.798Z,980.00
2023-05-12T00:39:07.828Z,983.00
2023-05-12T00:40:07.888Z,985.00
2023-05-12T00:41:07.871Z,992.00
2023-05-12T00:42:07.894Z,974.00
2023-05-12T00:43:07.922Z,984.00
2023-05-12T00:44:07.999Z,968.00
2023-05-12T00:45:08.037Z,975.00
2023-05-12T00:46:08.430Z,971.00
2023-05-12T00:47:08.091Z,974.00
2023-05-12T00:48:08.187Z,968.00
2023-05-12T00:49:08.161Z,967.00
2023-05-12T00:50:08.223Z,968.00
2023-05-12T00:51:08.205Z,966.00
2023-05-12T00:52:08.274Z,973.00
2023-05-12T00:53:08.276Z,970.00
2023-05-12T00:54:08.328Z,964.00
2023-05-12T00:55:08.406Z,956.00
2023-05-12T00:56:08.905Z,957.00
2023-05-12T00:57:08.457Z,965.00
2023-05-12T00:58:08.480Z,968.00
2023-05-12T00:59:08.508Z,969.00
2023-05-12T01:00:08.524Z,956.00
2023-05-12T01:01:08.951Z,963.00
2023-05-12T01:02:08.795Z,953.00
2023-05-12T01:03:08.765Z,953.00
2023-05-12T01:04:08.704Z,949.00
2023-05-12T01:05:08.756Z,952.00
2023-05-12T01:06:08.783Z,955.00
2023-05-12T01:07:08.833Z,948.00
2023-05-12T01:08:08.881Z,940.00
2023-05-12T01:09:08.918Z,935.00
2023-05-12T01:10:08.915Z,940.00
2023-05-12T01:11:08.963Z,942.00
2023-05-12T01:12:09.042Z,948.00
2023-05-12T01:13:09.044Z,943.00
2023-05-12T01:14:09.087Z,944.00
2023-05-12T01:15:09.114Z,937.00
2023-05-12T01:16:09.112Z,941.00
2023-05-12T01:17:09.165Z,941.00
2023-05-12T01:18:09.277Z,925.00
2023-05-12T01:19:09.293Z,929.00
2023-05-12T01:20:09.268Z,930.00
2023-05-12T01:21:09.429Z,926.00
2023-05-12T01:22:09.325Z,926.00
2023-05-12T01:23:09.348Z,931.00
2023-05-12T01:24:09.405Z,913.00
2023-05-12T01:25:09.444Z,922.00
2023-05-12T01:26:09.503Z,918.00
2023-05-12T01:27:09.528Z,920.00
2023-05-12T01:28:09.593Z,917.00
2023-05-12T01:29:09.651Z,916.00
2023-05-12T01:30:09.669Z,910.00
2023-05-12T01:31:09.966Z,916.00
2023-05-12T01:32:09.721Z,909.00
2023-05-12T01:33:09.779Z,892.00
2023-05-12T01:34:09.834Z,898.00
2023-05-12T01:35:09.853Z,898.00
2023-05-12T01:36:09.895Z,899.00
2023-05-12T01:37:09.895Z,902.00
2023-05-12T01:38:09.942Z,882.00
2023-05-12T01:39:09.944Z,894.00
2023-05-12T01:40:09.975Z,895.00
2023-05-12T01:41:09.995Z,894.00
2023-05-12T01:42:10.041Z,891.00
2023-05-12T01:43:10.010Z,881.00
2023-05-12T01:44:10.050Z,885.00
2023-05-12T01:45:10.098Z,888.00
2023-05-12T01:46:10.460Z,900.00
2023-05-12T01:47:10.131Z,886.00
2023-05-12T01:48:10.140Z,888.00
2023-05-12T01:49:10.157Z,886.00
2023-05-12T01:50:10.181Z,906.00
2023-05-12T01:51:10.238Z,890.00
2023-05-12T01:52:10.228Z,896.00
2023-05-12T01:53:10.309Z,887.00
2023-05-12T01:54:10.328Z,891.00
2023-05-12T01:55:10.364Z,888.00
2023-05-12T01:56:10.367Z,893.00
2023-05-12T01:57:10.375Z,889.00
2023-05-12T01:58:10.440Z,880.00
2023-05-12T01:59:10.446Z,888.00
2023-05-12T02:00:10.456Z,874.00
2023-05-12T02:01:10.484Z,885.00
2023-05-12T02:02:10.534Z,884.00
2023-05-12T02:03:10.627Z,882.00
2023-05-12T02:04:10.602Z,890.00
2023-05-12T02:05:10.590Z,882.00
2023-05-12T02:06:10.594Z,887.00
2023-05-12T02:07:10.645Z,877.00
2023-05-12T02:08:10.667Z,899.00
2023-05-12T02:09:10.664Z,882.00
2023-05-12T02:10:10.716Z,882.00
2023-05-12T02:11:10.758Z,876.00
2023-05-12T02:12:10.793Z,892.00
2023-05-12T02:13:10.820Z,887.00
2023-05-12T02:14:10.867Z,877.00
2023-05-12T02:15:10.896Z,886.00
2023-05-12T02:16:11.439Z,883.00
2023-05-12T02:17:10.954Z,894.00
2023-05-12T02:18:11.077Z,884.00
2023-05-12T02:19:11.116Z,892.00
2023-05-12T02:20:11.111Z,882.00
2023-05-12T02:21:11.110Z,884.00
2023-05-12T02:22:11.207Z,890.00
2023-05-12T02:23:11.222Z,886.00
2023-05-12T02:24:12.363Z,883.00
2023-05-12T02:25:11.264Z,892.00
2023-05-12T02:26:11.397Z,883.00
2023-05-12T02:27:11.220Z,890.00
2023-05-12T02:28:11.214Z,881.00
2023-05-12T02:29:11.212Z,872.00
2023-05-12T02:30:11.220Z,877.00
2023-05-12T02:31:11.189Z,873.00
2023-05-12T02:32:11.330Z,892.00
2023-05-12T02:33:11.182Z,885.00
2023-05-12T02:34:11.176Z,875.00
2023-05-12T02:35:11.172Z,862.00
2023-05-12T02:36:11.185Z,888.00
2023-05-12T02:37:11.170Z,870.00
2023-05-12T02:38:11.137Z,872.00
2023-05-12T02:39:11.167Z,882.00
2023-05-12T02:40:11.159Z,869.00
2023-05-12T02:41:11.114Z,882.00
2023-05-12T02:42:11.454Z,874.00
2023-05-12T02:43:11.149Z,867.00
2023-05-12T02:44:11.116Z,870.00
2023-05-12T02:45:11.123Z,870.00
2023-05-12T02:46:11.170Z,863.00
2023-05-12T02:47:11.120Z,865.00
2023-05-12T02:48:11.116Z,865.00
2023-05-12T02:49:11.143Z,872.00
2023-05-12T02:50:11.089Z,863.00
2023-05-12T02:51:11.100Z,861.00
2023-05-12T02:52:11.396Z,879.00
2023-05-12T02:53:11.103Z,867.00
2023-05-12T02:54:11.056Z,878.00
2023-05-12T02:55:11.050Z,867.00
2023-05-12T02:56:11.057Z,868.00
2023-05-12T02:57:11.067Z,866.00
2023-05-12T02:58:11.037Z,858.00
2023-05-12T02:59:11.040Z,870.00
2023-05-12T03:00:11.055Z,868.00
2023-05-12T03:01:11.722Z,866.00
2023-05-12T03:02:11.107Z,866.00
2023-05-12T03:03:11.126Z,861.00
2023-05-12T03:04:11.014Z,863.00
2023-05-12T03:05:11.032Z,865.00
2023-05-12T03:06:11.053Z,854.00
2023-05-12T03:07:11.439Z,865.00
2023-05-12T03:08:10.974Z,865.00
2023-05-12T03:09:11.005Z,863.00
2023-05-12T03:10:10.987Z,862.00
2023-05-12T03:11:10.959Z,855.00
2023-05-12T03:12:10.962Z,860.00
2023-05-12T03:13:10.984Z,872.00
2023-05-12T03:14:10.934Z,868.00
2023-05-12T03:15:10.951Z,870.00
2023-05-12T03:16:10.925Z,863.00
2023-05-12T03:17:10.971Z,872.00
2023-05-12T03:18:10.985Z,863.00
2023-05-12T03:19:11.046Z,877.00
2023-05-12T03:20:10.880Z,870.00
2023-05-12T03:21:10.865Z,856.00
2023-05-12T03:22:10.943Z,867.00
2023-05-12T03:23:10.893Z,861.00
2023-05-12T03:24:10.867Z,866.00
2023-05-12T03:25:10.898Z,870.00
2023-05-12T03:26:10.842Z,870.00
2023-05-12T03:27:10.866Z,853.00
2023-05-12T03:28:10.837Z,859.00
2023-05-12T03:29:10.840Z,853.00
2023-05-12T03:30:10.848Z,870.00
2023-05-12T03:31:10.835Z,861.00
2023-05-12T03:32:10.826Z,860.00
2023-05-12T03:33:10.810Z,866.00
2023-05-12T03:34:10.802Z,853.00
2023-05-12T03:35:10.781Z,850.00
2023-05-12T03:36:10.792Z,859.00
2023-05-12T03:37:10.928Z,852.00
2023-05-12T03:38:10.765Z,857.00
2023-05-12T03:39:10.764Z,860.00
2023-05-12T03:40:10.750Z,842.00
2023-05-12T03:41:10.781Z,846.00
2023-05-12T03:42:10.729Z,847.00
2023-05-12T03:43:10.731Z,870.00
2023-05-12T03:44:10.730Z,843.00
2023-05-12T03:45:10.752Z,867.00
2023-05-12T03:46:10.849Z,863.00
2023-05-12T03:47:10.838Z,850.00
2023-05-12T03:48:10.756Z,849.00
2023-05-12T03:49:10.707Z,870.00
2023-05-12T03:50:10.677Z,860.00
2023-05-12T03:51:10.702Z,859.00
2023-05-12T03:52:10.960Z,873.00
2023-05-12T03:53:10.700Z,869.00
2023-05-12T03:54:10.708Z,864.00
2023-05-12T03:55:10.729Z,852.00
2023-05-12T03:56:10.747Z,848.00
2023-05-12T03:57:10.773Z,856.00
2023-05-12T03:58:10.786Z,861.00
2023-05-12T03:59:10.821Z,864.00
2023-05-12T04:00:10.851Z,853.00
2023-05-12T04:01:10.857Z,839.00
2023-05-12T04:02:10.926Z,861.00
2023-05-12T04:03:10.946Z,867.00
2023-05-12T04:04:10.987Z,855.00
2023-05-12T04:05:10.955Z,860.00
2023-05-12T04:06:10.929Z,871.00
2023-05-12T04:07:11.482Z,863.00
2023-05-12T04:08:11.001Z,856.00
2023-05-12T04:09:10.983Z,856.00
2023-05-12T04:10:11.019Z,859.00
2023-05-12T04:11:11.071Z,859.00
2023-05-12T04:12:11.070Z,866.00
2023-05-12T04:13:11.118Z,862.00
2023-05-12T04:14:11.100Z,866.00
2023-05-12T04:15:11.135Z,866.00
2023-05-12T04:16:11.209Z,863.00
2023-05-12T04:17:11.478Z,845.00
2023-05-12T04:18:11.172Z,853.00
2023-05-12T04:19:11.263Z,855.00
2023-05-12T04:20:11.255Z,855.00
2023-05-12T04:21:11.264Z,853.00
2023-05-12T04:22:11.442Z,866.00
2023-05-12T04:23:11.940Z,870.00
2023-05-12T04:24:11.327Z,882.00
2023-05-12T04:25:11.320Z,848.00
2023-05-12T04:26:11.352Z,858.00
2023-05-12T04:27:11.458Z,850.00
2023-05-12T04:28:12.199Z,850.00
2023-05-12T04:29:11.384Z,856.00
2023-05-12T04:30:11.411Z,848.00
2023-05-12T04:31:11.449Z,864.00
2023-05-12T04:32:12.019Z,853.00
2023-05-12T04:33:11.521Z,857.00
2023-05-12T04:34:11.520Z,856.00
2023-05-12T04:35:11.912Z,849.00
2023-05-12T04:36:11.917Z,863.00
2023-05-12T04:37:11.565Z,874.00
2023-05-12T04:38:11.630Z,851.00
2023-05-12T04:39:11.665Z,856.00
2023-05-12T04:40:11.657Z,849.00
2023-05-12T04:41:11.697Z,858.00
2023-05-12T04:42:11.932Z,852.00
2023-05-12T04:44:00.000Z,855.00
2023-05-12T04:44:12.725Z,857.00
2023-05-12T04:45:11.715Z,856.00
2023-05-12T04:46:11.758Z,858.00
2023-05-12T04:47:11.717Z,859.00
2023-05-12T04:48:11.681Z,848.00
2023-05-12T04:49:11.709Z,855.00
2023-05-12T04:50:11.684Z,856.00
2023-05-12T04:51:11.678Z,842.00
2023-05-12T04:52:11.676Z,840.00
2023-05-12T04:53:11.655Z,909.00
2023-05-12T04:54:11.668Z,1100.00
2023-05-12T04:55:11.684Z,1149.00
2023-05-12T04:56:11.665Z,1214.00
2023-05-12T04:57:11.964Z,1324.00
2023-05-12T04:58:11.628Z,1389.00
2023-05-12T04:59:11.688Z,1464.00
2023-05-12T05:00:11.670Z,1427.00
2023-05-12T05:01:11.638Z,1389.00
2023-05-12T05:02:12.004Z,1357.00
2023-05-12T05:03:11.772Z,1301.00
2023-05-12T05:04:11.701Z,1251.00
2023-05-12T05:05:11.741Z,1217.00
2023-05-12T05:06:11.726Z,1208.00
2023-05-12T05:07:11.971Z,1189.00
2023-05-12T05:08:11.775Z,1208.00
2023-05-12T05:09:11.768Z,1178.00
2023-05-12T05:10:11.788Z,1175.00
2023-05-12T05:11:11.794Z,1170.00
2023-05-12T05:12:11.964Z,1159.00
2023-05-12T05:13:11.812Z,1149.00
2023-05-12T05:14:11.874Z,1157.00
2023-05-12T05:15:11.880Z,1149.00
2023-05-12T05:16:11.927Z,1142.00
2023-05-12T05:17:11.895Z,1135.00
2023-05-12T05:18:11.951Z,1137.00
2023-05-12T05:19:20.216Z,1131.00
2023-05-12T05:20:15.388Z,1132.00
2023-05-12T05:21:12.037Z,1131.00
2023-05-12T05:22:11.917Z,1133.00
2023-05-12T05:23:11.896Z,1131.00
2023-05-12T05:24:11.914Z,1119.00
2023-05-12T05:25:11.903Z,1125.00
2023-05-12T05:26:11.909Z,1112.00
2023-05-12T05:27:11.969Z,1092.00
2023-05-12T05:28:11.889Z,1098.00
2023-05-12T05:29:11.901Z,1086.00
2023-05-12T05:30:11.854Z,1075.00
2023-05-12T05:31:11.934Z,1099.00
2023-05-12T05:32:11.902Z,1075.00
2023-05-12T05:33:11.857Z,1075.00
2023-05-12T05:34:11.842Z,1073.00
2023-05-12T05:35:11.832Z,1086.00
2023-05-12T05:36:11.833Z,1063.00
2023-05-12T05:37:11.993Z,1059.00
2023-05-12T05:38:11.813Z,1077.00
2023-05-12T05:39:11.806Z,1069.00
2023-05-12T05:40:11.771Z,1053.00
2023-05-12T05:41:11.771Z,1054.00
2023-05-12T05:42:11.772Z,1061.00
2023-05-12T05:43:11.780Z,1044.00
2023-05-12T05:44:11.787Z,1050.00
2023-05-12T05:45:11.787Z,1043.00
2023-05-12T05:46:11.815Z,1052.00
2023-05-12T05:47:12.031Z,1063.00
2023-05-12T05:48:11.788Z,1073.00
2023-05-12T05:49:11.747Z,1116.00
2023-05-12T05:50:11.719Z,1137.00
2023-05-12T05:51:11.725Z,1158.00
2023-05-12T05:52:11.734Z,1173.00
2023-05-12T05:53:11.696Z,1220.00
2023-05-12T05:54:11.693Z,1251.00
2023-05-12T05:55:11.664Z,1278.00
2023-05-12T05:56:11.674Z,1321.00
2023-05-12T05:57:11.692Z,1362.00
2023-05-12T05:58:11.970Z,1405.00
2023-05-12T05:59:11.685Z,1448.00
2023-05-12T06:00:11.680Z,1472.00
2023-05-12T06:01:11.693Z,1486.00
2023-05-12T06:02:11.687Z,1501.00
2023-05-12T06:03:12.119Z,1505.00
2023-05-12T06:04:11.674Z,1526.00
2023-05-12T06:05:12.998Z,1514.00
2023-05-12T06:06:11.751Z,1528.00
2023-05-12T06:07:11.753Z,1506.00
2023-05-12T06:08:11.833Z,1523.00
2023-05-12T06:09:11.872Z,1527.00
2023-05-12T06:10:11.911Z,1533.00
2023-05-12T06:11:11.975Z,1540.00
2023-05-12T06:12:11.986Z,1530.00
2023-05-12T06:13:12.501Z,1540.00
2023-05-12T06:14:12.093Z,1552.00
2023-05-12T06:15:12.111Z,1545.00
2023-05-12T06:16:12.238Z,1563.00
2023-05-12T06:17:12.248Z,1566.00
2023-05-12T06:18:12.460Z,1566.00
2023-05-12T06:19:13.030Z,1562.00
2023-05-12T06:20:12.349Z,1568.00
2023-05-12T06:21:12.387Z,1570.00
2023-05-12T06:22:12.534Z,1556.00
2023-05-12T06:23:12.993Z,1554.00
2023-05-12T06:24:12.553Z,1563.00
2023-05-12T06:25:12.641Z,1555.00
2023-05-12T06:26:12.656Z,1562.00
2023-05-12T06:27:12.690Z,1548.00
2023-05-12T06:28:12.757Z,1547.00
2023-05-12T06:29:12.806Z,1545.00
2023-05-12T06:30:15.576Z,1553.00
2023-05-12T06:31:12.879Z,1562.00
2023-05-12T06:32:12.876Z,1558.00
2023-05-12T06:33:12.866Z,1547.00
2023-05-12T06:34:12.836Z,1549.00
2023-05-12T06:35:12.849Z,1538.00
2023-05-12T06:36:12.857Z,1531.00
2023-05-12T06:37:12.807Z,1528.00
2023-05-12T06:38:13.009Z,1530.00
2023-05-12T06:39:12.823Z,1514.00
2023-05-12T06:40:12.801Z,1514.00
2023-05-12T06:41:12.790Z,1525.00
2023-05-12T06:42:12.803Z,1531.00
2023-05-12T06:43:13.081Z,1521.00
2023-05-12T06:44:12.845Z,1513.00
2023-05-12T06:45:12.766Z,1522.00
2023-05-12T06:46:12.819Z,1522.00
2023-05-12T06:47:12.763Z,1516.00
2023-05-12T06:48:13.010Z,1512.00
2023-05-12T06:49:12.754Z,1498.00
2023-05-12T06:50:12.712Z,1495.00
2023-05-12T06:51:12.710Z,1507.00
2023-05-12T06:52:12.697Z,1502.00
2023-05-12T06:53:13.021Z,1509.00
2023-05-12T06:54:12.712Z,1537.00
2023-05-12T06:55:12.706Z,1563.00
2023-05-12T06:56:12.681Z,1567.00
2023-05-12T06:57:12.663Z,1585.00
2023-05-12T06:58:12.657Z,1589.00
2023-05-12T06:59:12.673Z,1593.00
2023-05-12T07:00:12.663Z,1631.00
2023-05-12T07:01:12.683Z,1688.00
2023-05-12T07:02:12.659Z,1691.00
2023-05-12T07:03:13.053Z,1674.00
2023-05-12T07:04:12.645Z,1454.00
2023-05-12T07:05:12.615Z,1385.00
2023-05-12T07:06:12.676Z,1316.00
2023-05-12T07:07:12.590Z,1218.00
2023-05-12T07:08:12.602Z,1158.00
2023-05-12T07:09:12.612Z,1066.00
2023-05-12T07:10:12.615Z,949.00
2023-05-12T07:11:12.561Z,859.00
2023-05-12T07:12:12.538Z,797.00
2023-05-12T07:13:12.560Z,775.00
2023-05-12T07:14:12.535Z,735.00
2023-05-12T07:15:12.528Z,668.00
2023-05-12T07:16:12.608Z,653.00
2023-05-12T07:17:12.512Z,634.00
2023-05-12T07:18:13.060Z,633.00
2023-05-12T07:19:12.595Z,632.00
2023-05-12T07:20:12.503Z,618.00
2023-05-12T07:21:12.500Z,619.00
2023-05-12T07:22:12.487Z,625.00
2023-05-12T07:23:13.008Z,629.00
2023-05-12T07:24:12.560Z,626.00
2023-05-12T07:25:12.629Z,617.00
2023-05-12T07:26:12.662Z,612.00
2023-05-12T07:27:12.693Z,602.00
2023-05-12T07:28:12.998Z,589.00
2023-05-12T07:29:13.985Z,604.00
2023-05-12T07:30:12.844Z,618.00
2023-05-12T07:31:12.918Z,609.00
2023-05-12T07:32:12.870Z,598.00
2023-05-12T07:33:13.089Z,604.00
2023-05-12T07:34:12.931Z,590.00
2023-05-12T07:35:12.961Z,574.00
2023-05-12T07:36:12.954Z,553.00
2023-05-12T07:37:12.986Z,524.00
2023-05-12T07:38:13.028Z,511.00
2023-05-12T07:39:13.004Z,500.00
2023-05-12T07:40:13.052Z,507.00
2023-05-12T07:41:13.042Z,519.00
2023-05-12T07:42:13.029Z,535.00
2023-05-12T07:43:13.070Z,542.00
2023-05-12T07:44:13.079Z,551.00
2023-05-12T07:45:13.096Z,535.00
2023-05-12T07:46:13.083Z,525.00
2023-05-12T07:47:13.201Z,524.00
2023-05-12T07:48:13.214Z,524.00
2023-05-12T07:49:13.183Z,552.00
2023-05-12T07:50:13.203Z,564.00
2023-05-12T07:51:13.265Z,642.00
2023-05-12T07:52:13.290Z,695.00
2023-05-12T07:53:13.390Z,756.00
2023-05-12T07:54:13.435Z,818.00
2023-05-12T07:55:13.423Z,708.00
2023-05-12T07:56:13.444Z,653.00
2023-05-12T07:57:13.507Z,662.00
2023-05-12T07:58:13.542Z,643.00
2023-05-12T07:59:13.571Z,564.00
2023-05-12T08:00:13.618Z,593.00
2023-05-12T08:01:13.624Z,600.00
2023-05-12T08:02:13.720Z,604.00
2023-05-12T08:03:14.094Z,631.00
2023-05-12T08:04:13.811Z,654.00
2023-05-12T08:05:13.777Z,693.00
2023-05-12T08:06:13.807Z,763.00
2023-05-12T08:07:13.842Z,831.00
2023-05-12T08:08:14.048Z,857.00
2023-05-12T08:09:13.872Z,904.00
2023-05-12T08:10:13.930Z,926.00
2023-05-12T08:11:13.923Z,966.00
2023-05-12T08:12:13.946Z,977.00
2023-05-12T08:13:13.925Z,1001.00
2023-05-12T08:14:13.969Z,1014.00
2023-05-12T08:15:14.048Z,1029.00
2023-05-12T08:16:14.023Z,1041.00
2023-05-12T08:17:14.073Z,1046.00
2023-05-12T08:18:14.120Z,1043.00
2023-05-12T08:19:14.175Z,1053.00
2023-05-12T08:20:14.148Z,1047.00
2023-05-12T08:21:14.143Z,1067.00
2023-05-12T08:22:14.119Z,1059.00
2023-05-12T08:23:14.166Z,1059.00
2023-05-12T08:24:14.226Z,1069.00
2023-05-12T08:25:14.334Z,1075.00
2023-05-12T08:26:14.286Z,1081.00
2023-05-12T08:27:14.325Z,1072.00
2023-05-12T08:28:14.315Z,1083.00
2023-05-12T08:29:14.344Z,1091.00
2023-05-12T08:30:14.370Z,1099.00
2023-05-12T08:31:14.465Z,1101.00
2023-05-12T08:32:14.404Z,1091.00
2023-05-12T08:33:14.504Z,1103.00
2023-05-12T08:34:15.470Z,1104.00
2023-05-12T08:35:14.481Z,1106.00
2023-05-12T08:36:14.441Z,1109.00
2023-05-12T08:37:14.467Z,1121.00
2023-05-12T08:38:14.417Z,1127.00
2023-05-12T08:39:14.418Z,1146.00
2023-05-12T08:40:14.394Z,1138.00
2023-05-12T08:41:14.385Z,1147.00
2023-05-12T08:42:14.393Z,1153.00
2023-05-12T08:43:14.452Z,1157.00
2023-05-12T08:44:14.477Z,1158.00
2023-05-12T08:45:14.440Z,1163.00
2023-05-12T08:46:14.541Z,1168.00
2023-05-12T08:47:14.524Z,1007.00
2023-05-12T08:48:15.109Z,984.00
2023-05-12T08:49:14.645Z,897.00
2023-05-12T08:50:14.676Z,852.00
2023-05-12T08:51:14.721Z,801.00
2023-05-12T08:52:14.709Z,737.00
2023-05-12T08:53:15.031Z,781.00
2023-05-12T08:54:14.764Z,734.00
2023-05-12T08:55:14.848Z,643.00
2023-05-12T08:57:14.827Z,660.00
2023-05-12T08:58:14.790Z,776.00
2023-05-12T08:59:14.785Z,796.00
2023-05-12T09:00:15.022Z,767.00
2023-05-12T09:01:15.115Z,851.00
2023-05-12T09:02:14.795Z,986.00
2023-05-12T09:03:15.060Z,980.00
2023-05-12T09:04:14.798Z,985.00
2023-05-12T09:05:14.757Z,1064.00
2023-05-12T09:06:14.741Z,1157.00
2023-05-12T09:07:14.709Z,1221.00
2023-05-12T09:08:16.045Z,1263.00
2023-05-12T09:09:14.707Z,1312.00
2023-05-12T09:10:25.941Z,1235.00
2023-05-12T09:11:15.727Z,1239.00
2023-05-12T09:12:15.131Z,1253.00
2023-05-12T09:13:15.034Z,1281.00
2023-05-12T09:14:14.929Z,1376.00
2023-05-12T09:15:14.674Z,1537.00
2023-05-12T09:16:14.895Z,1598.00
2023-05-12T09:17:14.696Z,1637.00
2023-05-12T09:18:14.642Z,1658.00
2023-05-12T09:19:15.132Z,1683.00
2023-05-12T09:20:30.093Z,1709.00
2023-05-12T09:21:15.624Z,1711.00
2023-05-12T09:22:14.618Z,1721.00
2023-05-12T09:23:14.620Z,1749.00
2023-05-12T09:24:15.031Z,1800.00
2023-05-12T09:25:14.870Z,1882.00
2023-05-12T09:26:14.601Z,1925.00
2023-05-12T09:27:14.649Z,1958.00
2023-05-12T09:28:14.601Z,1980.00
2023-05-12T09:29:23.983Z,2014.00
2023-05-12T09:30:15.594Z,2016.00
2023-05-12T09:31:14.732Z,2023.00
2023-05-12T09:32:15.549Z,2043.00
2023-05-12T09:33:14.787Z,2093.00
2023-05-12T09:34:14.734Z,2194.00
2023-05-12T09:35:14.796Z,2227.00
2023-05-12T09:36:14.821Z,2227.00
2023-05-12T09:37:15.451Z,2233.00
2023-05-12T09:38:14.935Z,2254.00
2023-05-12T09:39:15.047Z,2264.00
2023-05-12T09:40:15.984Z,2281.00
2023-05-12T09:41:14.948Z,2279.00
2023-05-12T09:42:15.007Z,2296.00
2023-05-12T09:43:15.801Z,2354.00
2023-05-12T09:44:15.084Z,2373.00
2023-05-12T09:45:15.056Z,2306.00
2023-05-12T09:46:15.126Z,2096.00
2023-05-12T09:47:15.168Z,2038.00
2023-05-12T09:48:15.226Z,2153.00
2023-05-12T09:49:15.581Z,2211.00
2023-05-12T09:50:15.308Z,2232.00
2023-05-12T09:51:15.394Z,2241.00
2023-05-12T09:52:15.430Z,2238.00
2023-05-12T09:53:15.498Z,2245.00
2023-05-12T09:54:15.575Z,2229.00
2023-05-12T09:55:15.627Z,2208.00
2023-05-12T09:56:15.678Z,2175.00
2023-05-12T09:57:15.698Z,2164.00
2023-05-12T09:58:15.735Z,2161.00
2023-05-12T09:59:15.765Z,2127.00
2023-05-12T10:00:31.349Z,2124.00
2023-05-12T10:01:22.600Z,2125.00
2023-05-12T10:02:16.813Z,2126.00
2023-05-12T10:03:15.846Z,2129.00
2023-05-12T10:04:16.051Z,2128.00
2023-05-12T10:05:15.737Z,2126.00
2023-05-12T10:06:15.753Z,2132.00
2023-05-12T10:07:15.752Z,2108.00
2023-05-12T10:08:15.729Z,2088.00
2023-05-12T10:09:15.756Z,2065.00
2023-05-12T10:10:15.711Z,2048.00
2023-05-12T10:11:15.699Z,2012.00
2023-05-12T10:12:15.730Z,2021.00
2023-05-12T10:13:15.699Z,2021.00
2023-05-12T10:14:15.723Z,1992.00
2023-05-12T10:15:15.716Z,1998.00
2023-05-12T10:16:15.707Z,1985.00
2023-05-12T10:17:15.673Z,1948.00
2023-05-12T10:18:15.748Z,1917.00
2023-05-12T10:19:15.651Z,1898.00
2023-05-12T10:20:15.677Z,1829.00
2023-05-12T10:21:15.649Z,1683.00
2023-05-12T10:22:15.667Z,1603.00
2023-05-12T10:23:15.657Z,1502.00
2023-05-12T10:24:15.617Z,1356.00
2023-05-12T10:25:15.641Z,1258.00
2023-05-12T10:26:15.630Z,1151.00
2023-05-12T10:27:15.624Z,1139.00
2023-05-12T10:28:15.606Z,1044.00
2023-05-12T10:29:16.059Z,970.00
2023-05-12T10:30:15.614Z,912.00
2023-05-12T10:31:15.745Z,852.00
2023-05-12T10:32:15.593Z,809.00
2023-05-12T10:33:15.581Z,747.00
2023-05-12T10:34:15.574Z,693.00
2023-05-12T10:35:15.531Z,682.00
2023-05-12T10:36:15.622Z,660.00
2023-05-12T10:37:15.550Z,682.00
2023-05-12T10:38:15.525Z,658.00
2023-05-12T10:39:15.507Z,638.00
2023-05-12T10:40:15.561Z,645.00
2023-05-12T10:41:15.511Z,649.00
2023-05-12T10:42:15.513Z,641.00
2023-05-12T10:43:15.493Z,635.00
2023-05-12T10:44:15.455Z,634.00
2023-05-12T10:45:15.498Z,601.00
2023-05-12T10:46:15.507Z,561.00
2023-05-12T10:47:15.474Z,581.00
2023-05-12T10:48:15.440Z,578.00
2023-05-12T10:49:15.444Z,622.00
2023-05-12T10:50:15.472Z,637.00
2023-05-12T10:51:15.438Z,630.00
2023-05-12T10:52:15.435Z,617.00
2023-05-12T10:53:15.452Z,585.00
2023-05-12T10:54:15.444Z,562.00
2023-05-12T10:55:15.482Z,526.00
2023-05-12T10:56:15.604Z,506.00
2023-05-12T10:57:17.957Z,500.00
2023-05-12T10:58:15.607Z,507.00
2023-05-12T10:59:15.882Z,493.00
2023-05-12T11:00:15.655Z,474.00
2023-05-12T11:01:15.724Z,501.00
2023-05-12T11:02:15.792Z,490.00
2023-05-12T11:03:16.085Z,507.00
2023-05-12T11:04:15.708Z,503.00
2023-05-12T11:05:15.469Z,517.00
2023-05-12T11:06:15.742Z,500.00
2023-05-12T11:07:16.547Z,515.00
2023-05-12T11:08:15.818Z,509.00
2023-05-12T11:09:15.742Z,518.00
2023-05-12T11:10:15.533Z,500.00
2023-05-12T11:11:15.937Z,496.00
2023-05-12T11:12:15.338Z,514.00
2023-05-12T11:13:15.326Z,494.00
2023-05-12T11:14:15.285Z,509.00
2023-05-12T11:15:17.271Z,490.00
2023-05-12T11:16:15.571Z,495.00
2023-05-12T11:17:15.571Z,500.00
2023-05-12T11:18:15.701Z,500.00
2023-05-12T11:19:15.718Z,510.00
2023-05-12T11:20:15.749Z,502.00
2023-05-12T11:21:15.754Z,497.00
2023-05-12T11:22:15.766Z,504.00
2023-05-12T11:23:15.762Z,523.00
2023-05-12T11:24:16.148Z,544.00
2023-05-12T11:25:15.826Z,576.00
2023-05-12T11:26:15.854Z,626.00
2023-05-12T11:27:15.891Z,658.00
2023-05-12T11:28:16.011Z,725.00
2023-05-12T11:29:16.017Z,739.00
2023-05-12T11:30:16.090Z,741.00
2023-05-12T11:31:16.137Z,768.00
2023-05-12T11:32:16.176Z,774.00
2023-05-12T11:33:16.307Z,769.00
2023-05-12T11:34:16.594Z,756.00
2023-05-12T11:35:16.332Z,777.00
2023-05-12T11:36:16.494Z,728.00
2023-05-12T11:37:16.929Z,638.00
2023-05-12T11:38:16.378Z,613.00
2023-05-12T11:39:16.386Z,560.00
2023-05-12T11:40:16.478Z,570.00
2023-05-12T11:41:16.474Z,571.00
2023-05-12T11:42:19.548Z,586.00
2023-05-12T11:43:16.510Z,460.00
2023-05-12T11:44:16.538Z,405.00
2023-05-12T11:45:16.548Z,400.00
2023-05-12T11:46:16.493Z,400.00
2023-05-12T11:47:16.608Z,400.00
2023-05-12T11:48:16.649Z,400.00
2023-05-12T11:49:16.444Z,400.00
2023-05-12T11:50:16.432Z,402.00
2023-05-12T11:51:16.492Z,459.00
2023-05-12T11:52:16.492Z,520.00
2023-05-12T11:53:16.423Z,546.00
2023-05-12T11:54:16.605Z,597.00
2023-05-12T11:55:16.447Z,614.00
2023-05-12T11:56:16.461Z,638.00
2023-05-12T11:57:16.475Z,684.00
2023-05-12T11:58:16.374Z,672.00
2023-05-12T11:59:16.401Z,767.00
2023-05-12T12:00:16.599Z,726.00
2023-05-12T12:01:16.374Z,768.00
2023-05-12T12:02:16.437Z,840.00
2023-05-12T12:03:16.605Z,814.00
2023-05-12T12:04:16.419Z,897.00
2023-05-12T12:05:16.628Z,907.00
2023-05-12T12:06:16.373Z,870.00
2023-05-12T12:07:16.359Z,914.00
2023-05-12T12:08:16.337Z,974.00
2023-05-12T12:09:16.318Z,976.00
2023-05-12T12:10:16.677Z,922.00
2023-05-12T12:11:16.375Z,908.00
2023-05-12T12:12:16.313Z,909.00
2023-05-12T12:13:16.277Z,932.00
2023-05-12T12:14:16.383Z,995.00
2023-05-12T12:15:16.604Z,940.00
2023-05-12T12:16:16.512Z,924.00
2023-05-12T12:17:16.505Z,908.00
2023-05-12T12:18:16.548Z,885.00
2023-05-12T12:19:16.666Z,848.00
2023-05-12T12:20:17.104Z,834.00
2023-05-12T12:21:18.389Z,902.00